Quad City International Airport
KMLI : now visible

Airfield :











YOU CAN JOIN US ON...

 
LOGIN :

Register | Disclaimer

   EN    FR    IT 

 









Legend :    VFR   Marginal VFR   IFR   Intensive IFR   Very Intensive IFR
Visi :
Ceiling :
>= 8 km
>= 3000ft
5 to 8 km
1000 to 3000 ft
1500m to 5 km
500 to 1000 ft
800 to 1500m
200 to 500 ft
< 800m
< 200 ft
Symbols :   Thunderstorms  Fog  Heavy snow  Heavy precipitations  Wind > 20 kt






- Airport Elevation : 590 ft
- IATA code : MLI


KMLI - Quad City International

CURRENT METAR :
  • 281452Z 18006KT 10SM SCT018 BKN023 BKN080 23/19 A2985 RMK AO2 SLP103 T02280189 58001

EXPIRED METARs :
  • 281439Z 18008KT 10SM SCT014 BKN020 OVC075 23/19 A2985 RMK AO2 T02280189
  • 281424Z 19006KT 10SM BKN014 BKN100 23/19 A2985 RMK AO2 T02280189
  • 281352Z 21005KT 10SM OVC015 22/19 A2985 RMK AO2 SLP105 T02170189
  • 281304Z 19005KT 10SM OVC014 22/19 A2985 RMK AO2 T02170194
  • 281252Z 20003KT 10SM FEW010 OVC015 22/19 A2985 RMK AO2 SLP104 T02170194
  • 281233Z 22004KT 10SM FEW010 OVC015 22/19 A2985 RMK AO2 T02170194

TAF KMLI
Valid from the 28 at 12:00 until the 29 at 12:00 UTC


281142Z 2812/2912 VRB03KT P6SM OVC015
FM281400 20006KT P6SM BKN008 OVC012
FM281700 26005KT 5SM -RA BR OVC015
FM281900 32008KT 3SM RA BR OVC012
FM282300 31010KT P6SM BKN035
KZAU FIR / North America



MET'MAP, your aeronautical weather chart ! - Copyright ORBIFLY December 2007 - Disclaimer

ORBIFLY MET'MAP TEAM :

Programming & Development : Alexandra Zaïnal
Concept & original design : Baudouin d'Aumeries
Assistance for programming : Marc-Olivier Méhu
Technical & hardware support : Manuel Goepfert

Contact : metmap@orbifly.com




SOURCES & CREDITS :

   NOAA       Earth
Advisory